Details for Norwegian Air Shuttle at GCLP




Go Back


Latest METAR
Local Time

GCLP 211430Z 01017KT 340V050 9999 FEW030 BKN055 20/09 Q1013 WS ALL RWY NOSIG

21/02/2018, 15:02:49

Description
Results
Norwegian Air Shuttle Logo
Number of Pilots based at GCLP
0 Pilots Based here
Number of Norwegian Air Shuttle Flights Departed from GCLP
0 Flights Departed
Number of Norwegian Air Shuttle Flights Arrived at GCLP
0 Flights Arrived
Number of Norwegian Air Shuttle Schedules Departing from GCLP
12 Schedules
Number of Norwegian Air Shuttle Schedules Arriving at GCLP
12 Schedules
Number of Norwegian Air Shuttle Schedules Departing from GCLP availible today
2 Schedules Today
Number of Norwegian Air Shuttle Schedules Arriving at GCLP availible today
2 Schedules Today
Average Landing Rate at GCLP
-190 fpm
Norwegian Air Shuttle Average Landing Rate at GCLP
0 fpm
Total Fuel Purchased at GCLP by Norwegian Air Shuttle
0.00 kgs / 0.00 lbs

Pilots Based at GCLP


Pilot ID
Pilot Name
Pilot Rank
No. of Flights
No. of Flying Hours
There are no pilots assigned to this hub!   Will you be the first?
Content